Time;durP1;ratioP1;P1;durP2;ratioP2;P2;SDS_P1;SDS_P2;PMS_P1;PMS_P2;Temp;Humidity;BMP_temperature;BMP_pressure;BME280_temperature;BME280_humidity;BME280_pressure;Samples;Min_cycle;Max_cycle;Signal;HPM_P1;HPM_P2
2020/12/13 00:01:43;;;;;;;68.17;28.27;;;3.40;91.70;;;;;;5028761;28;20030;-74
2020/12/13 00:04:08;;;;;;;66.37;27.77;;;3.40;91.80;;;;;;5030282;28;20505;-75
2020/12/13 00:06:34;;;;;;;69.63;27.20;;;3.40;91.80;;;;;;5030600;28;20037;-75
2020/12/13 00:09:02;;;;;;;74.97;28.60;;;3.40;91.80;;;;;;5030533;28;20417;-74
2020/12/13 00:11:28;;;;;;;64.00;27.50;;;3.40;91.80;;;;;;5030107;28;20079;-75
2020/12/13 00:13:53;;;;;;;65.23;27.07;;;3.40;91.80;;;;;;5030991;28;20034;-75
2020/12/13 00:16:19;;;;;;;70.73;27.23;;;3.40;91.80;;;;;;5030297;28;20030;-75
2020/12/13 00:18:45;;;;;;;69.27;27.93;;;3.40;91.80;;;;;;5031508;28;20394;-74
2020/12/13 00:21:15;;;;;;;71.73;27.63;;;3.40;91.70;;;;;;5031535;28;20030;-74
2020/12/13 00:23:41;;;;;;;65.50;25.17;;;3.40;91.70;;;;;;5030662;28;20051;-74
2020/12/13 00:26:11;;;;;;;76.97;29.40;;;3.40;91.80;;;;;;5030250;28;20029;-75
2020/12/13 00:28:38;;;;;;;73.72;27.70;;;3.40;91.80;;;;;;5031629;28;20034;-75
2020/12/13 00:31:05;;;;;;;68.00;26.47;;;3.30;91.90;;;;;;5031362;28;20041;-75
2020/12/13 00:33:31;;;;;;;74.57;27.30;;;3.30;91.80;;;;;;5030830;28;20095;-74
2020/12/13 00:35:57;;;;;;;70.63;27.53;;;3.40;91.90;;;;;;5031178;28;20042;-75
2020/12/13 00:38:23;;;;;;;71.20;25.37;;;3.30;91.80;;;;;;5031247;28;20037;-74
2020/12/13 00:40:51;;;;;;;69.87;27.83;;;3.30;91.90;;;;;;5030052;28;20033;-74
2020/12/13 00:43:18;;;;;;;71.43;25.03;;;3.30;91.90;;;;;;5029409;28;20038;-74
2020/12/13 00:45:44;;;;;;;74.33;27.23;;;3.30;91.90;;;;;;5030986;28;20061;-74
2020/12/13 00:48:10;;;;;;;81.40;27.53;;;3.30;91.90;;;;;;5030060;28;20038;-74
2020/12/13 00:50:38;;;;;;;76.07;27.63;;;3.30;92.00;;;;;;5013504;28;20482;-74
2020/12/13 00:53:05;;;;;;;76.73;28.00;;;3.30;91.90;;;;;;5029727;28;20038;-75
2020/12/13 00:55:30;;;;;;;75.97;28.20;;;3.30;91.90;;;;;;5029825;28;20037;-74
2020/12/13 00:57:57;;;;;;;73.47;26.97;;;3.30;92.00;;;;;;5029692;28;20046;-75
2020/12/13 01:00:22;;;;;;;72.77;28.03;;;3.30;92.10;;;;;;5033998;28;20091;-74
2020/12/13 01:02:48;;;;;;;78.37;28.70;;;3.40;92.10;;;;;;5034455;28;20483;-74
2020/12/13 01:05:14;;;;;;;71.77;27.03;;;3.30;92.00;;;;;;5034538;28;20538;-74
2020/12/13 01:07:42;;;;;;;72.53;26.60;;;3.40;92.00;;;;;;5034635;28;20116;-74
2020/12/13 01:10:08;;;;;;;68.10;25.87;;;3.30;92.00;;;;;;5017283;28;20033;-75
2020/12/13 01:12:34;;;;;;;69.27;26.20;;;3.30;92.00;;;;;;5032611;28;20045;-73
2020/12/13 01:15:00;;;;;;;66.03;25.63;;;3.30;92.10;;;;;;5016735;28;20167;-75
2020/12/13 01:17:26;;;;;;;79.43;29.00;;;3.30;92.10;;;;;;5033027;28;20508;-74
2020/12/13 01:19:51;;;;;;;78.00;26.90;;;3.30;92.10;;;;;;5033044;28;20035;-75
2020/12/13 01:22:17;;;;;;;62.90;24.33;;;3.30;92.10;;;;;;5033843;28;20430;-75
2020/12/13 01:24:43;;;;;;;65.53;23.53;;;3.30;92.10;;;;;;5033117;28;20029;-74
2020/12/13 01:27:08;;;;;;;69.83;26.47;;;3.30;92.10;;;;;;5034362;28;20032;-74
2020/12/13 01:29:34;;;;;;;66.93;26.97;;;3.30;92.10;;;;;;5034247;28;20029;-75
2020/12/13 01:32:01;;;;;;;67.00;25.93;;;3.30;92.20;;;;;;5032324;28;20034;-74
2020/12/13 01:34:27;;;;;;;70.00;26.13;;;3.30;92.20;;;;;;5034090;28;20026;-74
2020/12/13 01:36:53;;;;;;;64.70;24.50;;;3.30;92.20;;;;;;5034614;28;20088;-75
2020/12/13 01:39:18;;;;;;;67.37;25.27;;;3.30;92.20;;;;;;5034273;28;20025;-76
2020/12/13 01:41:44;;;;;;;65.80;25.83;;;3.30;92.20;;;;;;5033678;28;20479;-76
2020/12/13 01:44:10;;;;;;;71.67;26.20;;;3.30;92.20;;;;;;5033871;28;20030;-76
2020/12/13 01:46:37;;;;;;;68.17;26.03;;;3.40;92.20;;;;;;5034024;28;20075;-76
2020/12/13 01:49:08;;;;;;;66.63;25.73;;;3.30;92.20;;;;;;5033834;28;20025;-76
2020/12/13 01:52:06;;;;;;;;;;;3.40;92.50;;;;;;5033884;28;20121;-76
2020/12/13 01:54:35;;;;;;;64.27;22.17;;;3.40;92.20;;;;;;5034189;28;19912;-76
2020/12/13 01:57:02;;;;;;;68.53;25.93;;;3.40;92.20;;;;;;5032493;28;20033;-76
2020/12/13 01:59:30;;;;;;;64.53;23.53;;;3.40;92.20;;;;;;5032397;28;20030;-76
2020/12/13 02:02:01;;;;;;;63.93;25.13;;;3.40;92.20;;;;;;5033084;28;20033;-75
2020/12/13 02:04:32;;;;;;;64.30;26.00;;;3.40;92.20;;;;;;5033546;28;20517;-76
2020/12/13 02:07:01;;;;;;;66.22;25.85;;;3.40;92.20;;;;;;5033503;28;20056;-75
2020/12/13 02:09:27;;;;;;;56.53;23.00;;;3.40;92.20;;;;;;5033688;28;20179;-75
2020/12/13 02:11:52;;;;;;;60.93;25.57;;;3.40;92.30;;;;;;5031863;28;20034;-75
2020/12/13 02:14:19;;;;;;;63.97;25.63;;;3.40;92.20;;;;;;5033041;28;20044;-76
2020/12/13 02:16:48;;;;;;;72.03;26.00;;;3.40;92.20;;;;;;5033361;28;20045;-75
2020/12/13 02:19:15;;;;;;;65.70;25.70;;;3.40;92.20;;;;;;5033285;28;20033;-76
2020/12/13 02:21:46;;;;;;;62.33;25.17;;;3.40;92.20;;;;;;5031582;28;20443;-76
2020/12/13 02:24:13;;;;;;;69.72;25.25;;;3.40;92.20;;;;;;5033289;28;20026;-76
2020/12/13 02:26:41;;;;;;;56.67;23.07;;;3.30;92.20;;;;;;5032888;28;20029;-76
2020/12/13 02:29:06;;;;;;;56.03;21.17;;;3.30;92.20;;;;;;5033295;28;20057;-76
2020/12/13 02:31:32;;;;;;;68.97;26.03;;;3.30;92.10;;;;;;5032763;28;20061;-76
2020/12/13 02:33:58;;;;;;;65.80;25.23;;;3.30;92.20;;;;;;5031736;28;20083;-75
2020/12/13 02:36:24;;;;;;;65.27;25.23;;;3.30;92.20;;;;;;5032828;28;20425;-75
2020/12/13 02:38:49;;;;;;;60.77;23.77;;;3.30;92.20;;;;;;5032829;28;20487;-75
2020/12/13 02:41:15;;;;;;;64.00;25.70;;;3.30;92.20;;;;;;5033409;28;20461;-76
2020/12/13 02:43:41;;;;;;;62.43;24.13;;;3.30;92.20;;;;;;5031089;28;20037;-76
2020/12/13 02:46:06;;;;;;;62.70;24.07;;;3.30;92.30;;;;;;5032767;28;20040;-76
2020/12/13 02:48:32;;;;;;;64.53;25.93;;;3.30;92.20;;;;;;5031313;28;20034;-76
2020/12/13 02:50:58;;;;;;;67.23;25.53;;;3.30;92.30;;;;;;5032565;28;20394;-76
2020/12/13 02:53:23;;;;;;;64.63;25.00;;;3.30;92.30;;;;;;5031122;28;20297;-76
2020/12/13 02:55:49;;;;;;;64.27;25.40;;;3.30;92.30;;;;;;5032589;28;20029;-75
2020/12/13 02:58:16;;;;;;;70.80;25.00;;;3.30;92.40;;;;;;5031161;28;20395;-76
2020/12/13 03:00:41;;;;;;;68.20;25.40;;;3.30;92.40;;;;;;5032573;28;20116;-76
2020/12/13 03:03:07;;;;;;;65.00;24.17;;;3.30;92.30;;;;;;5032070;28;20116;-76
2020/12/13 03:05:33;;;;;;;64.57;24.60;;;3.30;92.30;;;;;;5032394;28;20027;-75
2020/12/13 03:07:59;;;;;;;70.63;25.17;;;3.30;92.30;;;;;;5031259;28;20371;-76
2020/12/13 03:10:24;;;;;;;64.43;24.53;;;3.30;92.20;;;;;;5031207;28;20025;-75
2020/12/13 03:12:50;;;;;;;68.13;24.80;;;3.30;92.30;;;;;;5031728;28;20342;-76
2020/12/13 03:15:16;;;;;;;68.43;24.73;;;3.30;92.30;;;;;;5031136;28;20092;-76
2020/12/13 03:17:41;;;;;;;63.67;24.60;;;3.30;92.40;;;;;;5032220;28;20089;-76
2020/12/13 03:20:08;;;;;;;66.73;24.30;;;3.30;92.30;;;;;;5032260;28;20112;-75
2020/12/13 03:22:33;;;;;;;77.43;27.77;;;3.30;92.30;;;;;;5031434;28;20032;-76
2020/12/13 03:24:59;;;;;;;72.60;23.90;;;3.20;92.30;;;;;;5032066;28;20025;-76
2020/12/13 03:27:25;;;;;;;67.10;24.80;;;3.20;92.30;;;;;;5032131;28;20037;-65
2020/12/13 03:29:51;;;;;;;67.27;24.83;;;3.20;92.30;;;;;;5032084;28;20040;-65
2020/12/13 03:32:18;;;;;;;73.70;26.00;;;3.20;92.40;;;;;;5031568;28;20038;-65
2020/12/13 03:34:43;;;;;;;76.10;26.60;;;3.20;92.30;;;;;;5031936;28;20033;-65
2020/12/13 03:37:09;;;;;;;69.43;25.23;;;3.20;92.40;;;;;;5030564;28;20079;-65
2020/12/13 03:39:35;;;;;;;69.20;26.63;;;3.20;92.30;;;;;;5030624;28;20040;-65
2020/12/13 03:42:01;;;;;;;72.43;25.03;;;3.20;92.30;;;;;;5030166;28;20021;-65
2020/12/13 03:44:26;;;;;;;74.00;26.17;;;3.20;92.40;;;;;;5014273;28;20037;-65
2020/12/13 03:46:52;;;;;;;74.27;26.37;;;3.20;92.40;;;;;;5031707;28;20029;-65
2020/12/13 03:49:18;;;;;;;72.23;26.47;;;3.20;92.50;;;;;;5031565;28;20033;-65
2020/12/13 03:51:44;;;;;;;74.57;25.93;;;3.30;92.50;;;;;;5031344;28;20372;-65
2020/12/13 03:54:10;;;;;;;70.23;26.20;;;3.20;92.50;;;;;;5031568;28;20117;-65
2020/12/13 03:56:35;;;;;;;73.17;26.57;;;3.30;92.50;;;;;;5031696;28;20037;-65
2020/12/13 03:59:01;;;;;;;73.00;26.27;;;3.20;92.60;;;;;;5031668;28;20039;-65
2020/12/13 04:01:27;;;;;;;73.13;25.80;;;3.30;92.60;;;;;;5031718;28;20394;-65
2020/12/13 04:03:53;;;;;;;68.93;27.10;;;3.30;92.50;;;;;;5031201;28;20080;-65
2020/12/13 04:06:18;;;;;;;72.70;26.53;;;3.30;92.40;;;;;;5030217;28;20540;-65
2020/12/13 04:08:44;;;;;;;66.77;25.87;;;3.20;92.50;;;;;;5030369;28;20483;-65
2020/12/13 04:11:11;;;;;;;68.90;26.13;;;3.20;92.50;;;;;;5030188;28;20137;-65
2020/12/13 04:13:36;;;;;;;70.27;26.00;;;3.20;92.50;;;;;;5029852;28;20041;-65
2020/12/13 04:16:02;;;;;;;66.87;26.07;;;3.20;92.50;;;;;;5031507;28;20072;-65
2020/12/13 04:18:28;;;;;;;65.87;25.73;;;3.20;92.50;;;;;;5031395;28;20037;-65
2020/12/13 04:20:54;;;;;;;72.33;27.00;;;3.20;92.60;;;;;;5031261;28;20030;-65
2020/12/13 04:23:19;;;;;;;73.63;26.83;;;3.20;92.50;;;;;;5030715;28;20540;-65
2020/12/13 04:25:45;;;;;;;70.33;25.90;;;3.20;92.50;;;;;;5030180;28;20051;-65
2020/12/13 04:28:11;;;;;;;68.40;26.23;;;3.20;92.50;;;;;;5031376;28;20037;-65
2020/12/13 04:30:36;;;;;;;81.50;26.83;;;3.20;92.50;;;;;;5031426;28;20107;-65
2020/12/13 04:33:02;;;;;;;74.93;26.40;;;3.20;92.50;;;;;;5030913;28;20067;-65
2020/12/13 04:35:28;;;;;;;66.23;23.93;;;3.20;92.50;;;;;;5032956;28;20037;-65
2020/12/13 04:37:53;;;;;;;71.17;26.83;;;3.10;92.50;;;;;;5035188;28;20045;-65
2020/12/13 04:40:19;;;;;;;72.37;24.00;;;3.10;92.50;;;;;;5035207;28;20026;-65
2020/12/13 04:42:45;;;;;;;68.37;25.27;;;3.00;92.50;;;;;;5034684;28;20394;-65
2020/12/13 04:45:11;;;;;;;69.07;25.97;;;3.00;92.60;;;;;;5035145;28;20072;-65
2020/12/13 04:47:52;;;;;;;77.07;26.67;;;3.00;92.60;;;;;;5035066;28;20038;-65
2020/12/13 04:50:20;;;;;;;70.63;25.47;;;3.00;92.70;;;;;;5034876;28;20508;-65
2020/12/13 04:52:46;;;;;;;73.13;27.40;;;3.00;92.70;;;;;;5033070;28;20045;-65
2020/12/13 04:55:12;;;;;;;66.20;24.50;;;3.10;92.70;;;;;;5034797;28;20124;-65
2020/12/13 04:57:38;;;;;;;70.97;25.03;;;3.00;92.70;;;;;;5034867;28;20034;-65
2020/12/13 05:00:04;;;;;;;72.10;25.73;;;3.00;92.70;;;;;;5034932;28;20036;-65
2020/12/13 05:02:30;;;;;;;75.97;26.70;;;3.00;92.70;;;;;;5032997;28;20026;-65
2020/12/13 05:04:56;;;;;;;73.97;25.87;;;3.10;92.80;;;;;;5034787;28;20030;-65
2020/12/13 05:07:22;;;;;;;69.27;25.83;;;3.10;93.00;;;;;;5034578;28;20033;-65
2020/12/13 05:09:51;;;;;;;76.30;27.77;;;3.10;92.70;;;;;;5034592;28;20042;-65
2020/12/13 05:12:23;;;;;;;67.90;25.73;;;3.10;92.80;;;;;;5034050;28;20490;-65
2020/12/13 05:14:49;;;;;;;69.57;24.93;;;3.10;92.90;;;;;;5034548;28;20044;-65
2020/12/13 05:17:15;;;;;;;69.67;25.87;;;3.10;92.80;;;;;;5034390;28;20394;-65
2020/12/13 05:19:44;;;;;;;75.57;27.20;;;3.10;92.80;;;;;;5033251;28;20034;-65
2020/12/13 05:22:09;;;;;;;69.77;26.13;;;3.10;92.70;;;;;;5033945;28;20034;-65
2020/12/13 05:24:36;;;;;;;72.83;26.43;;;3.10;93.00;;;;;;5032936;28;20030;-65
2020/12/13 05:27:06;;;;;;;65.10;21.63;;;3.10;92.90;;;;;;5034386;28;20040;-65
2020/12/13 05:29:35;;;;;;;68.47;23.77;;;3.10;92.90;;;;;;5033178;28;20474;-65
2020/12/13 05:32:21;;;;;;;69.47;24.90;;;3.10;92.80;;;;;;5033706;28;20084;-65
2020/12/13 05:34:49;;;;;;;70.63;25.43;;;3.10;92.80;;;;;;5034305;28;20036;-65
2020/12/13 05:37:16;;;;;;;65.97;24.80;;;3.10;93.00;;;;;;5034090;28;20026;-65
2020/12/13 05:39:53;;;;;;;71.20;25.97;;;3.10;92.90;;;;;;5034306;28;20030;-65
2020/12/13 05:42:33;;;;;;;70.20;26.27;;;3.10;92.90;;;;;;5033544;28;20478;-65
2020/12/13 05:45:17;;;;;;;71.63;26.38;;;3.10;92.90;;;;;;5034010;28;20080;-65
2020/12/13 05:52:48;;;;;;;67.67;25.17;;;3.10;92.90;;;;;;5033601;28;20068;-65
2020/12/13 05:55:14;;;;;;;66.67;24.13;;;3.10;92.90;;;;;;5033711;28;20034;-65
2020/12/13 05:57:40;;;;;;;73.40;26.23;;;3.10;92.80;;;;;;5033866;28;20038;-65
2020/12/13 06:00:08;;;;;;;71.13;25.67;;;3.00;92.80;;;;;;5033809;28;20505;-65
2020/12/13 06:02:39;;;;;;;76.80;25.20;;;3.10;92.80;;;;;;5033282;28;20043;-65
2020/12/13 06:05:06;;;;;;;78.83;26.63;;;3.00;92.90;;;;;;5032468;28;20199;-65
2020/12/13 06:07:35;;;;;;;72.77;26.87;;;3.00;92.80;;;;;;5033471;28;20036;-65
2020/12/13 06:10:05;;;;;;;75.57;26.17;;;3.00;93.10;;;;;;5033407;28;20092;-65
2020/12/13 06:12:31;;;;;;;80.22;27.10;;;3.10;92.90;;;;;;5032933;28;20064;-65
2020/12/13 06:14:59;;;;;;;78.23;27.00;;;3.00;92.90;;;;;;5033464;28;20045;-65
2020/12/13 06:17:28;;;;;;;76.10;26.87;;;3.00;92.80;;;;;;5033363;28;20033;-65
2020/12/13 06:19:55;;;;;;;83.97;28.10;;;3.00;92.80;;;;;;5032983;28;20038;-65
2020/12/13 06:22:22;;;;;;;85.50;27.70;;;3.00;92.80;;;;;;5032848;28;20083;-65
2020/12/13 06:24:50;;;;;;;84.87;27.17;;;3.00;92.90;;;;;;5033054;28;20445;-65
2020/12/13 06:27:19;;;;;;;84.23;28.10;;;3.00;92.90;;;;;;5033560;28;20033;-65
2020/12/13 06:29:45;;;;;;;85.40;27.97;;;3.00;92.90;;;;;;5033007;28;20033;-65
2020/12/13 06:32:11;;;;;;;90.07;30.17;;;3.00;92.90;;;;;;5032742;28;20565;-65
2020/12/13 06:34:40;;;;;;;87.27;29.13;;;3.00;92.90;;;;;;5033040;28;20475;-65
2020/12/13 06:37:07;;;;;;;90.63;28.37;;;3.00;93.00;;;;;;5032928;28;20092;-65
2020/12/13 06:39:32;;;;;;;86.17;29.13;;;3.00;93.00;;;;;;5032915;28;20030;-65
2020/12/13 06:42:03;;;;;;;86.23;27.37;;;3.00;92.90;;;;;;5032269;28;20049;-65
2020/12/13 06:44:29;;;;;;;86.75;29.10;;;3.00;93.00;;;;;;5032915;28;20029;-65
2020/12/13 06:46:55;;;;;;;87.50;27.10;;;3.00;92.90;;;;;;5032773;28;20044;-66
2020/12/13 06:49:20;;;;;;;89.27;28.53;;;3.00;92.90;;;;;;5032484;28;20042;-65
2020/12/13 06:51:48;;;;;;;93.50;29.20;;;3.00;92.90;;;;;;5032220;28;20037;-65
2020/12/13 06:54:19;;;;;;;102.93;30.80;;;3.00;93.00;;;;;;5032612;28;20506;-65
2020/12/13 06:56:46;;;;;;;78.75;24.15;;;3.00;93.10;;;;;;5031894;28;20072;-65
2020/12/13 06:59:14;;;;;;;92.63;28.67;;;3.00;93.10;;;;;;5031437;28;20107;-65
2020/12/13 07:01:42;;;;;;;98.87;31.47;;;3.00;93.00;;;;;;5032010;28;20088;-65
2020/12/13 07:04:23;;;;;;;92.63;29.20;;;3.00;93.10;;;;;;5031991;28;20393;-65
2020/12/13 07:09:23;;;;;;;88.30;28.63;;;3.00;93.10;;;;;;5031394;28;20037;-65
2020/12/13 07:11:50;;;;;;;83.60;27.50;;;3.00;93.10;;;;;;5031227;28;20493;-65
2020/12/13 07:14:17;;;;;;;87.47;27.83;;;3.00;93.40;;;;;;5029392;28;20037;-65
2020/12/13 07:16:48;;;;;;;99.23;30.50;;;3.00;93.30;;;;;;5030243;28;20041;-65
2020/12/13 07:19:16;;;;;;;91.30;29.27;;;3.00;93.10;;;;;;5031112;28;20045;-65
2020/12/13 07:21:43;;;;;;;99.67;30.80;;;3.00;93.20;;;;;;5029660;28;20208;-65
2020/12/13 07:24:10;;;;;;;86.20;28.43;;;3.00;93.30;;;;;;5029985;28;20061;-65
2020/12/13 07:26:38;;;;;;;100.67;30.83;;;3.00;93.30;;;;;;5029454;28;20038;-65
2020/12/13 07:29:13;;;;;;;96.00;30.83;;;3.00;93.20;;;;;;5031415;28;20090;-66
2020/12/13 07:31:44;;;;;;;95.83;30.23;;;3.00;93.10;;;;;;5030563;28;20041;-65
2020/12/13 07:34:10;;;;;;;95.97;30.30;;;3.10;93.30;;;;;;5029999;28;20095;-65
2020/12/13 07:36:37;;;;;;;117.33;33.70;;;3.00;93.30;;;;;;5029363;28;20041;-65
2020/12/13 07:39:08;;;;;;;96.37;29.43;;;3.00;93.40;;;;;;5031757;28;20521;-75
2020/12/13 07:41:34;;;;;;;95.57;29.88;;;3.10;93.40;;;;;;5022943;28;20042;-75
2020/12/13 07:44:02;;;;;;;95.67;29.97;;;3.10;93.30;;;;;;5009966;28;20120;-75
2020/12/13 07:46:30;;;;;;;100.77;30.00;;;3.10;93.30;;;;;;5009988;28;20084;-76
2020/12/13 07:49:20;;;;;;;102.90;30.87;;;3.10;93.30;;;;;;5009625;28;20121;-76
2020/12/13 07:51:51;;;;;;;107.00;32.85;;;3.10;93.50;;;;;;5005105;28;20509;-76
2020/12/13 07:54:24;;;;;;;93.53;27.63;;;3.10;93.40;;;;;;5022847;28;20398;-76
2020/12/13 07:56:52;;;;;;;96.67;30.90;;;3.10;93.50;;;;;;5029098;28;20037;-75
2020/12/13 07:59:20;;;;;;;89.77;30.57;;;3.20;93.50;;;;;;5030896;28;20071;-76
2020/12/13 08:01:48;;;;;;;96.83;29.97;;;3.20;93.50;;;;;;5029198;28;20094;-75
2020/12/13 08:04:15;;;;;;;90.33;29.83;;;3.20;93.50;;;;;;5018920;28;20131;-76
2020/12/13 08:06:41;;;;;;;89.87;29.80;;;3.20;93.50;;;;;;5017139;28;20029;-76
2020/12/13 08:09:13;;;;;;;105.20;30.63;;;3.20;93.50;;;;;;5017262;28;20072;-75
2020/12/13 08:11:40;;;;;;;94.43;30.97;;;3.30;93.50;;;;;;5025395;28;20117;-76
2020/12/13 08:14:08;;;;;;;84.87;28.17;;;3.30;93.60;;;;;;5034421;28;20044;-76
2020/12/13 08:16:34;;;;;;;96.00;30.33;;;3.30;93.50;;;;;;5034699;28;20049;-76
2020/12/13 08:19:06;;;;;;;97.27;32.13;;;3.30;93.50;;;;;;5034318;28;20049;-76
2020/12/13 08:21:51;;;;;;;93.47;31.10;;;3.30;93.50;;;;;;5033113;28;20125;-76
2020/12/13 08:24:17;;;;;;;93.43;29.67;;;3.30;93.60;;;;;;5033184;28;20056;-76
2020/12/13 08:26:44;;;;;;;92.97;30.53;;;3.40;93.70;;;;;;5034546;28;20037;-76
2020/12/13 08:29:11;;;;;;;79.23;27.00;;;3.40;93.70;;;;;;5016469;28;20119;-75
2020/12/13 08:31:37;;;;;;;86.37;31.33;;;3.40;93.60;;;;;;5034201;28;20167;-76
2020/12/13 08:34:05;;;;;;;83.50;28.03;;;3.50;93.50;;;;;;5032546;28;20562;-76
2020/12/13 08:36:32;;;;;;;85.83;29.20;;;3.50;93.50;;;;;;5026309;28;20333;-76
2020/12/13 08:39:00;;;;;;;96.47;32.40;;;3.40;93.50;;;;;;5011076;28;20042;-76
2020/12/13 08:41:26;;;;;;;92.43;31.13;;;3.40;93.50;;;;;;5053831;28;20033;-75
2020/12/13 08:43:52;;;;;;;93.13;30.27;;;3.40;93.70;;;;;;5018814;28;20038;-75
2020/12/13 08:46:41;;;;;;;87.73;29.47;;;3.50;93.70;;;;;;5026876;28;20041;-76
2020/12/13 08:49:07;;;;;;;81.50;28.73;;;3.50;93.60;;;;;;5004559;28;20478;-75
2020/12/13 08:51:33;;;;;;;89.97;30.10;;;3.50;93.70;;;;;;5018746;28;20134;-76
2020/12/13 08:54:02;;;;;;;89.10;28.40;;;3.50;93.60;;;;;;5008804;28;20034;-76
2020/12/13 08:56:36;;;;;;;86.60;28.97;;;3.50;93.60;;;;;;5012123;28;20038;-77
2020/12/13 08:59:07;;;;;;;87.90;29.60;;;3.60;93.50;;;;;;5010941;28;20054;-76
2020/12/13 09:01:36;;;;;;;81.43;27.58;;;3.50;93.50;;;;;;5009620;28;20045;-76
2020/12/13 09:04:17;;;;;;;89.20;30.13;;;3.60;93.60;;;;;;5010044;28;20634;-76
2020/12/13 09:06:55;;;;;;;93.40;31.42;;;3.60;93.70;;;;;;4977209;28;20128;-76
2020/12/13 09:09:21;;;;;;;82.57;30.07;;;3.60;93.70;;;;;;5009440;28;20037;-76
2020/12/13 09:11:48;;;;;;;80.73;27.83;;;3.60;93.80;;;;;;4994735;28;20064;-76
2020/12/13 09:14:35;;;;;;;91.77;30.70;;;3.70;93.60;;;;;;5010771;28;20399;-75
2020/12/13 09:17:01;;;;;;;85.63;29.10;;;3.60;93.50;;;;;;5011286;28;20064;-76
2020/12/13 09:19:28;;;;;;;85.00;29.23;;;3.60;93.50;;;;;;5012020;28;20061;-77
2020/12/13 09:22:01;;;;;;;81.47;30.50;;;3.60;93.50;;;;;;5009762;28;20068;-77
2020/12/13 09:24:31;;;;;;;78.27;26.73;;;3.60;93.60;;;;;;5010944;28;20327;-76
2020/12/13 09:27:11;;;;;;;74.68;26.75;;;3.70;93.70;;;;;;5010613;28;20034;-76
2020/12/13 09:29:39;;;;;;;79.03;28.93;;;3.70;93.60;;;;;;5012739;28;20038;-76
2020/12/13 09:32:07;;;;;;;83.90;29.17;;;3.70;93.60;;;;;;5012027;28;20034;-77
2020/12/13 09:34:33;;;;;;;87.20;29.60;;;3.70;93.70;;;;;;5012728;28;20064;-76
2020/12/13 09:36:59;;;;;;;81.47;29.83;;;3.80;93.70;;;;;;5010501;28;20404;-76
2020/12/13 09:39:24;;;;;;;80.10;27.70;;;3.80;93.70;;;;;;5009929;28;20069;-77
2020/12/13 09:41:54;;;;;;;83.73;28.73;;;3.80;93.60;;;;;;5011124;28;20041;-76
2020/12/13 09:44:20;;;;;;;75.00;26.53;;;3.80;93.60;;;;;;5011981;28;20042;-75
2020/12/13 09:46:46;;;;;;;80.77;29.83;;;3.80;93.60;;;;;;5010109;28;20042;-75
2020/12/13 09:49:11;;;;;;;85.37;28.17;;;3.80;93.60;;;;;;5011979;28;20125;-76
2020/12/13 09:51:37;;;;;;;80.30;29.70;;;3.80;93.50;;;;;;5010999;28;20042;-75
2020/12/13 09:54:03;;;;;;;80.43;28.70;;;3.80;93.50;;;;;;5011950;28;21258;-76
2020/12/13 09:56:29;;;;;;;76.70;27.97;;;3.80;93.50;;;;;;5010931;28;20053;-76
2020/12/13 09:58:54;;;;;;;75.77;27.17;;;3.80;93.50;;;;;;5012259;28;20055;-76
2020/12/13 10:01:20;;;;;;;75.67;27.43;;;3.80;93.40;;;;;;5011515;28;20052;-76
2020/12/13 10:03:49;;;;;;;76.43;28.63;;;3.90;93.60;;;;;;4977810;28;20034;-76
2020/12/13 10:11:29;;;;;;;88.03;30.37;;;3.90;93.60;;;;;;5012941;28;20072;-76
2020/12/13 10:13:56;;;;;;;81.50;29.60;;;4.00;93.60;;;;;;5012132;28;20076;-76
2020/12/13 10:16:22;;;;;;;76.57;27.00;;;4.00;93.50;;;;;;5012509;28;20571;-76
2020/12/13 10:18:48;;;;;;;85.87;29.73;;;4.00;93.50;;;;;;5012766;28;20125;-77
2020/12/13 10:21:19;;;;;;;78.73;29.53;;;3.90;93.40;;;;;;5012364;28;20120;-76
2020/12/13 10:23:45;;;;;;;86.23;29.43;;;3.90;93.40;;;;;;5012156;28;20121;-76
2020/12/13 10:26:11;;;;;;;73.20;28.17;;;4.00;93.50;;;;;;5012231;28;20534;-75
2020/12/13 10:28:36;;;;;;;82.23;29.03;;;4.00;93.40;;;;;;5012751;28;20096;-76
2020/12/13 10:31:03;;;;;;;83.70;30.53;;;4.00;93.50;;;;;;5011347;28;20073;-75
2020/12/13 10:33:29;;;;;;;81.60;29.00;;;4.00;93.50;;;;;;5009686;28;20038;-76
2020/12/13 10:35:55;;;;;;;86.63;29.10;;;4.00;93.50;;;;;;5012568;28;20052;-76
2020/12/13 10:38:21;;;;;;;87.37;29.93;;;4.00;93.40;;;;;;5012039;28;20125;-76
2020/12/13 10:40:46;;;;;;;84.03;29.60;;;4.00;93.50;;;;;;5012426;28;20038;-76
2020/12/13 10:43:13;;;;;;;74.33;27.17;;;4.00;93.50;;;;;;5011932;28;20331;-76
2020/12/13 10:45:39;;;;;;;81.03;28.70;;;4.00;93.50;;;;;;5011748;28;20038;-76
2020/12/13 10:48:04;;;;;;;83.93;29.83;;;4.10;93.50;;;;;;5011000;28;20065;-76
2020/12/13 10:50:37;;;;;;;82.13;28.03;;;4.10;93.50;;;;;;5010693;28;20049;-76
2020/12/13 10:53:04;;;;;;;83.97;29.70;;;4.10;93.50;;;;;;5011669;28;20042;-76
2020/12/13 10:55:30;;;;;;;89.03;29.23;;;4.20;93.50;;;;;;5043330;28;20105;-76
2020/12/13 10:57:55;;;;;;;83.30;29.03;;;4.10;93.40;;;;;;5011533;28;20512;-77
2020/12/13 11:00:23;;;;;;;80.60;28.57;;;4.20;93.60;;;;;;5012098;28;20060;-76
2020/12/13 11:02:53;;;;;;;82.87;30.23;;;4.20;93.40;;;;;;4993771;28;20121;-76
2020/12/13 11:05:18;;;;;;;83.00;29.43;;;4.20;93.40;;;;;;5010602;28;20033;-77
2020/12/13 11:07:44;;;;;;;93.63;30.30;;;4.20;93.40;;;;;;5012053;28;20034;-76
2020/12/13 11:10:10;;;;;;;94.20;30.47;;;4.20;93.30;;;;;;5011468;28;20402;-76
2020/12/13 11:12:35;;;;;;;83.70;27.43;;;4.20;93.30;;;;;;5041513;28;20034;-76
2020/12/13 11:15:03;;;;;;;90.73;28.23;;;4.20;93.40;;;;;;5010100;28;20399;-76
2020/12/13 11:17:29;;;;;;;95.67;30.40;;;4.20;93.30;;;;;;5041966;28;20556;-76
2020/12/13 11:19:55;;;;;;;90.37;29.67;;;4.20;93.30;;;;;;5011246;28;20466;-75
2020/12/13 11:22:21;;;;;;;89.27;31.17;;;4.30;93.50;;;;;;5009886;28;20034;-76
2020/12/13 11:24:46;;;;;;;89.67;30.60;;;4.30;93.70;;;;;;5011765;28;20399;-75
2020/12/13 11:27:12;;;;;;;86.90;29.77;;;4.40;93.50;;;;;;5010052;28;20153;-75
2020/12/13 11:29:38;;;;;;;88.47;31.43;;;4.40;93.50;;;;;;5011629;28;20045;-76
2020/12/13 11:32:05;;;;;;;90.37;30.17;;;4.40;93.20;;;;;;5009144;28;20125;-74
2020/12/13 11:34:31;;;;;;;89.57;31.53;;;4.40;93.20;;;;;;5011325;28;20129;-75
2020/12/13 11:36:56;;;;;;;85.30;30.63;;;4.40;93.20;;;;;;5010145;28;20041;-76
2020/12/13 11:39:22;;;;;;;92.93;31.03;;;4.50;93.30;;;;;;5011036;28;20172;-75
2020/12/13 11:41:48;;;;;;;80.30;29.50;;;4.40;93.30;;;;;;5009997;28;20038;-75
2020/12/13 11:44:13;;;;;;;89.43;30.27;;;4.50;93.30;;;;;;5042855;28;20384;-75
2020/12/13 11:46:40;;;;;;;89.73;30.50;;;4.50;93.30;;;;;;5010875;28;22871;-75
2020/12/13 11:49:05;;;;;;;92.47;31.57;;;4.50;93.50;;;;;;5042957;28;20185;-75
2020/12/13 11:51:31;;;;;;;90.77;30.83;;;4.50;93.30;;;;;;5009654;28;20145;-75
2020/12/13 11:53:57;;;;;;;98.07;32.90;;;4.50;93.30;;;;;;5010867;28;20046;-75
2020/12/13 11:56:23;;;;;;;92.40;30.63;;;4.50;93.30;;;;;;5011152;28;20053;-75
2020/12/13 11:58:49;;;;;;;96.57;31.37;;;4.60;93.40;;;;;;5010771;28;20057;-76
2020/12/13 12:01:19;;;;;;;83.70;30.43;;;4.60;93.30;;;;;;5010958;28;20033;-75
2020/12/13 12:03:45;;;;;;;92.83;31.63;;;4.70;93.50;;;;;;5010241;28;20415;-76
2020/12/13 12:06:14;;;;;;;83.73;28.97;;;4.70;93.50;;;;;;5010902;28;20380;-75
2020/12/13 12:08:42;;;;;;;78.90;28.80;;;4.80;93.60;;;;;;5010723;28;20038;-75
2020/12/13 12:11:09;;;;;;;78.50;27.40;;;4.90;93.50;;;;;;5011053;28;20054;-75
2020/12/13 12:13:35;;;;;;;72.57;26.93;;;5.10;93.40;;;;;;5010391;28;20530;-75
2020/12/13 12:16:01;;;;;;;75.67;28.33;;;5.10;93.30;;;;;;5010362;28;20129;-75
2020/12/13 12:18:26;;;;;;;75.60;25.67;;;5.20;93.10;;;;;;5009614;28;20045;-75
2020/12/13 12:20:54;;;;;;;80.80;29.13;;;5.20;92.90;;;;;;5042310;28;20133;-76
2020/12/13 12:23:19;;;;;;;74.07;28.20;;;5.20;92.80;;;;;;5041147;28;20045;-75
2020/12/13 12:25:51;;;;;;;85.33;33.33;;;5.20;92.80;;;;;;5010845;28;20037;-75
2020/12/13 12:28:17;;;;;;;81.10;31.23;;;5.10;92.70;;;;;;5010551;28;20491;-76
2020/12/13 12:30:44;;;;;;;95.73;37.37;;;5.10;92.60;;;;;;5010841;28;20125;-75
2020/12/13 12:33:10;;;;;;;76.40;28.13;;;5.00;93.00;;;;;;5008637;28;20048;-75
2020/12/13 12:35:36;;;;;;;82.67;30.50;;;5.00;92.90;;;;;;5010734;28;20462;-75
2020/12/13 12:38:01;;;;;;;82.23;27.20;;;4.90;92.90;;;;;;5010948;28;20061;-75
2020/12/13 12:40:27;;;;;;;70.70;27.60;;;4.90;92.90;;;;;;5009199;28;20038;-75
2020/12/13 12:42:53;;;;;;;78.77;30.27;;;4.90;92.80;;;;;;5010504;28;20109;-74
2020/12/13 12:45:19;;;;;;;99.83;39.40;;;4.90;92.80;;;;;;5010139;28;20491;-75
2020/12/13 12:47:45;;;;;;;72.57;27.33;;;4.80;92.80;;;;;;5009643;28;20080;-75
2020/12/13 12:50:10;;;;;;;84.43;31.53;;;4.80;92.80;;;;;;5010812;28;20521;-75
2020/12/13 12:52:36;;;;;;;81.03;30.50;;;4.80;92.90;;;;;;5041365;28;20122;-76